createdAt,value
2018-04-12T00:01:29.274Z,77.50
2018-04-12T00:03:58.321Z,77.50
2018-04-12T00:06:28.124Z,77.80
2018-04-12T00:08:57.218Z,77.80
2018-04-12T00:11:26.235Z,77.90
2018-04-12T00:13:55.310Z,78.00
2018-04-12T00:16:24.380Z,78.00
2018-04-12T00:18:53.416Z,78.30
2018-04-12T00:21:22.492Z,78.70
2018-04-12T00:23:51.677Z,78.60
2018-04-12T00:26:20.706Z,78.40
2018-04-12T00:28:49.753Z,78.60
2018-04-12T00:31:18.844Z,78.60
2018-04-12T00:33:47.884Z,79.10
2018-04-12T00:36:17.697Z,79.20
2018-04-12T00:38:47.687Z,79.10
2018-04-12T00:41:16.670Z,79.10
2018-04-12T00:43:45.713Z,79.20
2018-04-12T00:46:14.800Z,79.20
2018-04-12T00:48:44.192Z,79.50
2018-04-12T00:51:14.004Z,79.10
2018-04-12T00:54:04.350Z,79.10
2018-04-12T00:56:33.425Z,79.10
2018-04-12T00:59:02.470Z,79.10
2018-04-12T01:01:31.506Z,79.20
2018-04-12T01:04:00.554Z,80.10
2018-04-12T01:06:29.600Z,79.50
2018-04-12T01:08:58.644Z,79.40
2018-04-12T01:11:27.746Z,80.20
2018-04-12T01:13:56.788Z,79.60
2018-04-12T01:16:25.825Z,79.30
2018-04-12T01:18:55.000Z,79.00
2018-04-12T01:21:24.038Z,79.40
2018-04-12T01:23:53.844Z,80.90
2018-04-12T01:26:23.778Z,80.00
2018-04-12T01:28:52.808Z,80.00
2018-04-12T01:31:21.856Z,79.80
2018-04-12T01:33:51.686Z,81.80
2018-04-12T01:36:20.712Z,81.70
2018-04-12T01:38:49.751Z,82.00
2018-04-12T01:41:19.600Z,81.80
2018-04-12T01:43:48.642Z,81.80
2018-04-12T01:46:17.675Z,81.80
2018-04-12T01:48:46.998Z,82.10
2018-04-12T01:51:16.074Z,82.70
2018-04-12T01:53:45.846Z,82.20
2018-04-12T01:56:14.911Z,81.90
2018-04-12T01:58:43.943Z,82.10
2018-04-12T02:01:13.762Z,82.20
2018-04-12T02:03:43.600Z,82.30
2018-04-12T02:06:12.640Z,82.30
2018-04-12T02:08:41.672Z,82.40
2018-04-12T02:11:10.741Z,82.70
2018-04-12T02:13:40.570Z,83.30
2018-04-12T02:16:09.609Z,83.20
2018-04-12T02:18:38.685Z,83.40
2018-04-12T02:21:07.735Z,83.40
2018-04-12T02:23:36.784Z,83.60
2018-04-12T02:26:05.883Z,83.80
2018-04-12T02:28:34.930Z,83.00
2018-04-12T02:31:04.739Z,83.80
2018-04-12T02:33:34.604Z,83.30
2018-04-12T02:36:03.648Z,83.30
2018-04-12T02:38:33.461Z,83.10
2018-04-12T02:41:03.790Z,83.20
2018-04-12T02:43:32.840Z,83.10
2018-04-12T02:46:01.878Z,83.30
2018-04-12T02:48:31.746Z,83.60
2018-04-12T02:51:00.821Z,83.50
2018-04-12T02:53:29.878Z,83.40
2018-04-12T02:55:59.815Z,83.00
2018-04-12T02:58:28.853Z,83.00
2018-04-12T03:00:57.885Z,82.90
2018-04-12T03:03:26.947Z,83.10
2018-04-12T03:05:55.983Z,83.60
2018-04-12T03:08:25.051Z,83.80
2018-04-12T03:10:54.131Z,83.20
2018-04-12T03:13:23.161Z,83.00
2018-04-12T03:15:52.204Z,83.30
2018-04-12T03:18:21.371Z,83.60
2018-04-12T03:20:50.429Z,83.80
2018-04-12T03:23:19.467Z,83.90
2018-04-12T03:25:48.537Z,84.10
2018-04-12T03:28:18.343Z,84.30
2018-04-12T03:30:47.381Z,84.30
2018-04-12T03:33:16.425Z,84.50
2018-04-12T03:35:45.464Z,84.70
2018-04-12T03:38:14.720Z,84.40
2018-04-12T03:40:44.529Z,84.80
2018-04-12T03:43:14.328Z,85.10
2018-04-12T03:45:44.158Z,85.80
2018-04-12T03:48:13.190Z,85.20
2018-04-12T03:50:42.245Z,85.50
2018-04-12T03:53:11.649Z,85.50
2018-04-12T03:55:40.691Z,85.50
2018-04-12T03:58:09.716Z,85.50
2018-04-12T04:00:39.614Z,84.90
2018-04-12T04:03:08.677Z,84.80
2018-04-12T04:05:37.739Z,84.80
2018-04-12T04:08:07.592Z,85.10
2018-04-12T04:10:36.629Z,85.00
2018-04-12T04:13:06.452Z,85.90
2018-04-12T04:15:53.921Z,86.20
2018-04-12T04:18:40.697Z,86.00
2018-04-12T04:21:11.369Z,86.80
2018-04-12T04:23:40.455Z,86.80
2018-04-12T04:26:09.495Z,86.90
2018-04-12T04:28:38.555Z,86.80
2018-04-12T04:31:07.600Z,86.50
2018-04-12T04:33:36.638Z,86.30
2018-04-12T04:36:05.716Z,86.60
2018-04-12T04:38:34.771Z,86.60
2018-04-12T04:41:03.812Z,86.60
2018-04-12T04:43:32.913Z,86.60
2018-04-12T04:46:01.984Z,86.30
2018-04-12T04:48:31.039Z,86.10
2018-04-12T04:51:00.104Z,86.10
2018-04-12T04:53:29.305Z,86.20
2018-04-12T04:55:58.351Z,85.90
2018-04-12T04:58:28.168Z,86.00
2018-04-12T05:00:57.204Z,86.00
2018-04-12T05:03:26.251Z,86.10
2018-04-12T05:05:55.348Z,86.30
2018-04-12T05:08:24.387Z,86.10
2018-04-12T05:10:53.435Z,86.90
2018-04-12T05:13:22.509Z,86.00
2018-04-12T05:15:52.326Z,86.10
2018-04-12T05:18:22.132Z,86.20
2018-04-12T05:20:51.224Z,86.20
2018-04-12T05:23:21.041Z,86.10
2018-04-12T05:25:50.848Z,86.10
2018-04-12T05:28:20.726Z,86.40
2018-04-12T05:30:49.789Z,85.70
2018-04-12T05:33:18.836Z,85.90
2018-04-12T05:35:47.935Z,85.90
2018-04-12T05:38:16.992Z,85.80
2018-04-12T05:40:46.063Z,85.60
2018-04-12T05:43:15.133Z,85.50
2018-04-12T05:45:44.949Z,85.30
2018-04-12T05:48:14.778Z,85.10
2018-04-12T05:50:43.854Z,85.10
2018-04-12T05:53:13.679Z,84.80
2018-04-12T05:55:43.050Z,83.70
2018-04-12T05:58:12.239Z,83.60
2018-04-12T06:00:41.296Z,83.60
2018-04-12T06:03:10.359Z,83.20
2018-04-12T06:05:40.213Z,83.80
2018-04-12T06:08:09.262Z,83.70
2018-04-12T06:10:39.088Z,82.80
2018-04-12T06:13:08.138Z,82.70
2018-04-12T06:15:37.185Z,82.20
2018-04-12T06:18:06.299Z,81.60
2018-04-12T06:20:35.349Z,80.80
2018-04-12T06:23:05.179Z,80.40
2018-04-12T06:25:34.351Z,80.40
2018-04-12T06:28:03.404Z,80.20
2018-04-12T06:30:32.455Z,80.80
2018-04-12T06:33:02.296Z,78.70
2018-04-12T06:35:31.382Z,78.70
2018-04-12T06:38:00.456Z,78.50
2018-04-12T06:40:30.278Z,78.40
2018-04-12T06:43:00.132Z,77.90
2018-04-12T06:45:29.208Z,77.90
2018-04-12T06:47:58.273Z,77.90
2018-04-12T06:50:28.120Z,76.90
2018-04-12T06:52:57.164Z,76.80
2018-04-12T06:55:27.012Z,76.50
2018-04-12T06:57:56.060Z,75.70
2018-04-12T07:00:25.146Z,75.50
2018-04-12T07:02:54.234Z,75.10
2018-04-12T07:05:23.291Z,74.30
2018-04-12T07:07:52.367Z,73.90
2018-04-12T07:10:22.168Z,72.50
2018-04-12T07:12:52.031Z,72.00
2018-04-12T07:15:21.119Z,71.90
2018-04-12T07:17:50.159Z,71.10
2018-04-12T07:20:19.239Z,70.30
2018-04-12T07:22:48.284Z,69.60
2018-04-12T07:25:17.352Z,69.40
2018-04-12T07:27:47.219Z,68.50
2018-04-12T07:30:16.296Z,68.50
2018-04-12T07:32:45.332Z,67.90
2018-04-12T07:35:14.398Z,66.90
2018-04-12T07:37:43.466Z,66.80
2018-04-12T07:40:12.525Z,67.60
2018-04-12T07:42:41.617Z,68.00
2018-04-12T07:45:10.660Z,66.50
2018-04-12T07:47:39.720Z,65.50
2018-04-12T07:50:09.564Z,65.50
2018-04-12T07:52:38.620Z,65.50
2018-04-12T07:55:07.672Z,66.20
2018-04-12T07:57:36.758Z,64.40
2018-04-12T08:00:05.815Z,64.00
2018-04-12T08:02:35.656Z,63.80
2018-04-12T08:05:04.732Z,63.80
2018-04-12T08:07:34.527Z,64.70
2018-04-12T08:10:04.378Z,63.70
2018-04-12T08:12:33.446Z,63.60
2018-04-12T08:15:03.267Z,62.30
2018-04-12T08:17:32.323Z,61.80
2018-04-12T08:20:01.402Z,60.80
2018-04-12T08:22:30.490Z,60.30
2018-04-12T08:24:59.533Z,63.40
2018-04-12T08:27:29.343Z,59.70
2018-04-12T08:29:59.206Z,59.50
2018-04-12T08:32:28.244Z,58.90
2018-04-12T08:34:57.340Z,58.90
2018-04-12T08:37:26.416Z,58.20
2018-04-12T08:39:55.490Z,58.40
2018-04-12T08:42:24.561Z,57.00
2018-04-12T08:44:53.615Z,56.00
2018-04-12T08:47:22.733Z,55.50
2018-04-12T08:49:52.580Z,55.60
2018-04-12T08:52:22.486Z,55.60
2018-04-12T08:54:51.551Z,55.00
2018-04-12T08:57:20.581Z,54.00
2018-04-12T08:59:49.649Z,54.60
2018-04-12T09:02:18.735Z,52.50
2018-04-12T09:04:47.791Z,52.20
2018-04-12T09:07:16.836Z,52.00
2018-04-12T09:09:45.902Z,53.10
2018-04-12T09:12:14.986Z,54.70
2018-04-12T09:14:44.061Z,53.40
2018-04-12T09:17:13.180Z,52.40
2018-04-12T09:19:42.217Z,49.20
2018-04-12T09:22:11.288Z,48.20
2018-04-12T09:24:41.130Z,49.50
2018-04-12T09:27:10.216Z,49.40
2018-04-12T09:29:39.280Z,49.70
2018-04-12T09:32:09.128Z,47.90
2018-04-12T09:34:38.177Z,47.80
2018-04-12T09:37:08.184Z,45.30
2018-04-12T09:39:37.304Z,45.60
2018-04-12T09:42:06.358Z,46.00
2018-04-12T09:44:35.421Z,44.50
2018-04-12T09:47:04.459Z,45.60
2018-04-12T09:49:33.568Z,43.80
2018-04-12T09:52:03.390Z,45.10
2018-04-12T09:54:33.289Z,46.10
2018-04-12T09:57:02.340Z,45.50
2018-04-12T09:59:31.391Z,43.60
2018-04-12T10:02:02.342Z,41.10
2018-04-12T10:04:32.223Z,38.70
2018-04-12T10:07:06.248Z,38.70
2018-04-12T10:09:35.284Z,40.20
2018-04-12T10:12:04.343Z,37.20
2018-04-12T10:14:33.384Z,38.30
2018-04-12T10:17:02.481Z,36.20
2018-04-12T10:19:31.536Z,36.90
2018-04-12T10:22:01.346Z,35.90
2018-04-12T10:24:30.464Z,35.80
2018-04-12T10:26:59.498Z,35.00
2018-04-12T10:29:28.556Z,34.70
2018-04-12T10:31:57.762Z,34.00
2018-04-12T10:34:26.803Z,33.30
2018-04-12T10:36:55.879Z,32.90
2018-04-12T10:39:24.974Z,33.00
2018-04-12T10:41:54.023Z,33.50
2018-04-12T10:44:23.924Z,29.70
2018-04-12T10:46:52.991Z,29.60
2018-04-12T10:49:22.024Z,30.00
2018-04-12T10:51:51.068Z,29.10
2018-04-12T10:54:20.237Z,29.30
2018-04-12T10:56:49.281Z,29.10
2018-04-12T10:59:18.323Z,29.10
2018-04-12T11:01:47.375Z,28.80
2018-04-12T11:04:17.203Z,29.00
2018-04-12T11:06:47.014Z,28.20
2018-04-12T11:09:16.840Z,28.20
2018-04-12T11:11:45.898Z,28.20
2018-04-12T11:14:15.863Z,26.50
2018-04-12T11:16:44.966Z,25.30
2018-04-12T11:19:14.012Z,26.00
2018-04-12T11:21:43.863Z,22.90
2018-04-12T11:24:12.923Z,22.80
2018-04-12T11:26:41.937Z,22.70
2018-04-12T11:29:11.110Z,22.90
2018-04-12T11:31:40.923Z,23.20
2018-04-12T11:34:10.780Z,22.90
2018-04-12T11:36:40.570Z,23.10
2018-04-12T11:39:09.622Z,23.00
2018-04-12T11:41:38.688Z,23.00
2018-04-12T11:44:07.724Z,23.30
2018-04-12T11:46:37.590Z,22.10
2018-04-12T11:49:06.705Z,22.10
2018-04-12T11:51:35.702Z,22.10
2018-04-12T11:54:04.741Z,22.30
2018-04-12T11:56:33.917Z,22.60
2018-04-12T11:59:02.939Z,22.40
2018-04-12T12:01:31.984Z,21.70
2018-04-12T12:04:01.208Z,20.40
2018-04-12T12:06:30.607Z,20.90
2018-04-12T12:08:59.639Z,20.80
2018-04-12T12:11:28.729Z,20.40
2018-04-12T12:13:57.795Z,21.20
2018-04-12T12:16:26.840Z,20.80
2018-04-12T12:18:55.911Z,20.90
2018-04-12T12:21:24.962Z,20.70
2018-04-12T12:23:54.073Z,19.30
2018-04-12T12:26:23.100Z,19.30
2018-04-12T12:28:52.202Z,19.80
2018-04-12T12:31:22.037Z,21.80
2018-04-12T12:33:51.096Z,21.80
2018-04-12T12:36:20.160Z,21.60
2018-04-12T12:38:49.990Z,20.30
2018-04-12T12:41:19.841Z,21.20
2018-04-12T12:43:48.933Z,21.20
2018-04-12T12:46:18.737Z,20.20
2018-04-12T12:48:47.848Z,20.20
2018-04-12T12:51:16.896Z,20.30
2018-04-12T12:53:45.985Z,21.10
2018-04-12T12:56:15.789Z,20.90
2018-04-12T12:58:45.596Z,21.80
2018-04-12T13:01:15.460Z,20.30
2018-04-12T13:03:44.612Z,20.30
2018-04-12T13:06:13.647Z,18.80
2018-04-12T13:08:43.479Z,20.20
2018-04-12T13:11:12.517Z,20.30
2018-04-12T13:13:42.338Z,21.20
2018-04-12T13:16:12.209Z,21.50
2018-04-12T13:18:41.252Z,21.50
2018-04-12T13:21:10.280Z,22.20
2018-04-12T13:23:40.281Z,22.70
2018-04-12T13:26:09.312Z,22.90
2018-04-12T13:28:38.373Z,23.00
2018-04-12T13:31:07.438Z,23.90
2018-04-12T13:33:36.497Z,24.50
2018-04-12T13:36:05.587Z,24.40
2018-04-12T13:38:34.618Z,24.80
2018-04-12T13:41:04.470Z,24.80
2018-04-12T13:43:33.565Z,24.80
2018-04-12T13:46:02.607Z,25.60
2018-04-12T13:48:32.415Z,25.30
2018-04-12T13:51:01.853Z,24.80
2018-04-12T13:53:30.902Z,24.70
2018-04-12T13:55:59.953Z,25.00
2018-04-12T13:58:29.032Z,25.10
2018-04-12T14:00:58.075Z,25.60
2018-04-12T14:03:27.117Z,26.70
2018-04-12T14:05:56.202Z,27.00
2018-04-12T14:08:26.004Z,27.40
2018-04-12T14:10:55.872Z,27.70
2018-04-12T14:13:24.922Z,27.70
2018-04-12T14:15:54.722Z,27.90
2018-04-12T14:18:23.803Z,27.90
2018-04-12T14:20:52.912Z,27.90
2018-04-12T14:23:21.964Z,28.50
2018-04-12T14:25:51.019Z,29.20
2018-04-12T14:28:20.071Z,29.30
2018-04-12T14:30:49.133Z,29.20
2018-04-12T14:33:18.338Z,29.50
2018-04-12T14:35:47.377Z,30.20
2018-04-12T14:38:17.192Z,28.70
2018-04-12T14:40:47.050Z,27.70
2018-04-12T14:43:16.412Z,27.70
2018-04-12T14:45:47.016Z,27.20
2018-04-12T14:48:16.089Z,27.20
2018-04-12T14:50:45.249Z,27.30
2018-04-12T14:53:18.465Z,27.90
2018-04-12T14:55:47.503Z,28.70
2018-04-12T14:58:16.597Z,28.90
2018-04-12T15:00:45.680Z,28.40
2018-04-12T15:03:14.717Z,27.90
2018-04-12T15:05:43.793Z,27.00
2018-04-12T15:08:12.841Z,27.20
2018-04-12T15:10:41.903Z,25.90
2018-04-12T15:13:11.055Z,25.40
2018-04-12T15:15:41.110Z,25.00
2018-04-12T15:18:10.168Z,24.90
2018-04-12T15:20:39.225Z,24.80
2018-04-12T15:23:08.317Z,24.00
2018-04-12T15:25:37.360Z,23.90
2018-04-12T15:28:06.437Z,23.80
2018-04-12T15:30:35.530Z,24.00
2018-04-12T15:33:05.755Z,23.70
2018-04-12T15:35:36.032Z,23.60
2018-04-12T15:38:05.100Z,23.60
2018-04-12T15:40:34.955Z,22.70
2018-04-12T15:43:04.152Z,22.70
2018-04-12T15:45:33.221Z,22.30
2018-04-12T15:48:03.057Z,22.80
2018-04-12T15:50:35.246Z,22.80
2018-04-12T15:53:04.361Z,22.30
2018-04-12T15:55:33.592Z,22.20
2018-04-12T15:58:03.531Z,22.90
2018-04-12T16:00:32.771Z,22.90
2018-04-12T16:03:01.913Z,23.20
2018-04-12T16:05:31.713Z,23.80
2018-04-12T16:08:01.702Z,24.60
2018-04-12T16:10:30.782Z,24.50
2018-04-12T16:12:59.935Z,24.60
2018-04-12T16:15:29.811Z,25.90
2018-04-12T16:17:58.928Z,25.90
2018-04-12T16:20:28.900Z,26.00
2018-04-12T16:22:57.998Z,26.00
2018-04-12T16:25:27.077Z,26.10
2018-04-12T16:27:56.366Z,26.20
2018-04-12T16:30:25.530Z,26.20
2018-04-12T16:32:54.834Z,26.50
2018-04-12T16:35:24.173Z,26.90
2018-04-12T16:37:53.348Z,26.80
2018-04-12T16:40:23.351Z,28.00
2018-04-12T16:42:52.755Z,28.00
2018-04-12T16:45:22.037Z,28.30
2018-04-12T16:47:51.347Z,29.10
2018-04-12T16:50:20.726Z,28.60
2018-04-12T16:52:50.797Z,28.60
2018-04-12T16:55:20.118Z,28.60
2018-04-12T16:57:49.683Z,29.00
2018-04-12T17:00:19.768Z,29.30
2018-04-12T17:02:49.086Z,29.30
2018-04-12T17:05:18.429Z,29.40
2018-04-12T17:07:47.685Z,29.60
2018-04-12T17:10:16.973Z,29.90
2018-04-12T17:12:46.301Z,30.00
2018-04-12T17:15:15.626Z,30.00
2018-04-12T17:17:44.914Z,29.70
2018-04-12T17:20:15.148Z,30.50
2018-04-12T17:22:44.501Z,30.50
2018-04-12T17:25:14.583Z,30.50
2018-04-12T17:27:43.916Z,30.50
2018-04-12T17:30:13.354Z,30.70
2018-04-12T17:32:42.719Z,31.10
2018-04-12T17:35:12.028Z,31.90
2018-04-12T17:37:41.368Z,31.90
2018-04-12T17:40:11.492Z,32.80
2018-04-12T17:42:40.783Z,32.80
2018-04-12T17:45:10.957Z,33.70
2018-04-12T17:47:40.272Z,33.70
2018-04-12T17:50:09.567Z,33.90
2018-04-12T17:52:38.916Z,34.40
2018-04-12T17:55:08.226Z,33.80
2018-04-12T17:57:37.570Z,34.90
2018-04-12T18:00:06.883Z,36.00
2018-04-12T18:02:36.212Z,36.90
2018-04-12T18:05:05.545Z,37.80
2018-04-12T18:07:34.876Z,37.70
2018-04-12T18:10:04.229Z,38.30
2018-04-12T18:12:33.585Z,38.70
2018-04-12T18:15:02.968Z,39.60
2018-04-12T18:17:32.320Z,39.70
2018-04-12T18:20:01.711Z,40.80
2018-04-12T18:22:31.125Z,40.90
2018-04-12T18:25:00.434Z,41.10
2018-04-12T18:27:29.820Z,41.20
2018-04-12T18:29:59.937Z,42.80
2018-04-12T18:32:30.067Z,42.70
2018-04-12T18:34:59.468Z,42.60
2018-04-12T18:37:28.789Z,43.80
2018-04-12T18:39:58.153Z,43.30
2018-04-12T18:42:28.306Z,43.40
2018-04-12T18:44:57.672Z,42.80
2018-04-12T18:47:27.240Z,43.90
2018-04-12T18:49:56.571Z,44.80
2018-04-12T18:52:25.932Z,45.30
2018-04-12T18:54:55.261Z,45.60
2018-04-12T18:57:24.661Z,45.80
2018-04-12T18:59:54.035Z,45.90
2018-04-12T19:02:23.382Z,46.40
2018-04-12T19:04:52.766Z,46.10
2018-04-12T19:07:22.174Z,46.70
2018-04-12T19:09:51.577Z,46.80
2018-04-12T19:12:20.925Z,47.60
2018-04-12T19:14:50.289Z,48.00
2018-04-12T19:17:19.649Z,48.70
2018-04-12T19:19:48.983Z,48.40
2018-04-12T19:22:18.365Z,48.80
2018-04-12T19:24:47.711Z,49.20
2018-04-12T19:27:17.842Z,49.80
2018-04-12T19:29:47.965Z,49.60
2018-04-12T19:32:17.333Z,50.20
2018-04-12T19:34:46.691Z,49.20
2018-04-12T19:37:16.045Z,49.90
2018-04-12T19:39:46.175Z,51.20
2018-04-12T19:42:16.312Z,51.50
2018-04-12T19:44:46.018Z,51.40
2018-04-12T19:47:15.407Z,51.60
2018-04-12T19:49:45.604Z,52.10
2018-04-12T19:52:15.826Z,52.00
2018-04-12T19:54:45.991Z,53.00
2018-04-12T19:57:15.332Z,53.00
2018-04-12T19:59:44.681Z,52.50
2018-04-12T20:02:14.064Z,52.30
2018-04-12T20:04:44.188Z,52.60
2018-04-12T20:07:14.324Z,52.40
2018-04-12T20:09:43.710Z,52.40
2018-04-12T20:12:13.842Z,53.00
2018-04-12T20:14:43.183Z,53.00
2018-04-12T20:17:12.524Z,53.30
2018-04-12T20:19:41.860Z,53.30
2018-04-12T20:22:11.193Z,53.50
2018-04-12T20:24:40.519Z,53.50
2018-04-12T20:27:09.865Z,53.70
2018-04-12T20:29:39.203Z,54.40
2018-04-12T20:32:08.540Z,54.60
2018-04-12T20:34:38.619Z,54.70
2018-04-12T20:37:07.964Z,54.70
2018-04-12T20:39:38.132Z,55.00
2018-04-12T20:42:07.488Z,55.00
2018-04-12T20:44:36.819Z,55.80
2018-04-12T20:47:06.143Z,55.60
2018-04-12T20:49:35.516Z,55.20
2018-04-12T20:52:04.836Z,55.60
2018-04-12T20:54:34.140Z,55.60
2018-04-12T20:57:04.284Z,56.40
2018-04-12T20:59:33.625Z,56.30
2018-04-12T21:02:02.945Z,56.80
2018-04-12T21:04:32.262Z,56.90
2018-04-12T21:07:01.570Z,56.90
2018-04-12T21:09:30.907Z,57.00
2018-04-12T21:12:01.042Z,57.60
2018-04-12T21:14:30.374Z,57.60
2018-04-12T21:16:59.719Z,57.60
2018-04-12T21:19:29.803Z,58.00
2018-04-12T21:21:59.074Z,58.00
2018-04-12T21:24:28.500Z,57.80
2018-04-12T21:26:57.763Z,57.80
2018-04-12T21:29:27.147Z,57.70
2018-04-12T21:31:57.130Z,58.10
2018-04-12T21:34:26.196Z,58.10
2018-04-12T21:36:55.312Z,58.50
2018-04-12T21:39:24.524Z,58.70
2018-04-12T21:41:53.572Z,58.50
2018-04-12T21:44:28.742Z,59.60
2018-04-12T21:46:57.790Z,59.20
2018-04-12T21:49:26.847Z,59.10
2018-04-12T21:51:56.695Z,58.90
2018-04-12T21:54:25.765Z,58.80
2018-04-12T21:56:55.614Z,59.40
2018-04-12T21:59:24.713Z,59.30
2018-04-12T22:01:53.770Z,59.60
2018-04-12T22:04:22.818Z,59.80
2018-04-12T22:06:51.909Z,60.20
2018-04-12T22:09:20.997Z,60.00
2018-04-12T22:11:50.081Z,60.40
2018-04-12T22:14:19.139Z,60.60
2018-04-12T22:16:48.974Z,60.80
2018-04-12T22:19:18.020Z,61.50
2018-04-12T22:21:47.110Z,60.50
2018-04-12T22:24:16.192Z,61.00
2018-04-12T22:26:45.271Z,61.00
2018-04-12T22:29:14.319Z,61.00
2018-04-12T22:31:44.262Z,60.60
2018-04-12T22:34:13.328Z,60.60
2018-04-12T22:36:43.219Z,61.00
2018-04-12T22:39:12.288Z,61.00
2018-04-12T22:41:41.360Z,61.10
2018-04-12T22:44:10.401Z,61.10
2018-04-12T22:46:39.484Z,60.60
2018-04-12T22:49:08.551Z,60.80
2018-04-12T22:51:37.633Z,62.00
2018-04-12T22:54:06.783Z,61.50
2018-04-12T22:56:35.796Z,61.60
2018-04-12T22:59:05.624Z,61.80
2018-04-12T23:01:35.480Z,62.00
2018-04-12T23:04:04.526Z,62.00
2018-04-12T23:06:34.337Z,62.20
2018-04-12T23:09:04.180Z,62.10
2018-04-12T23:11:33.231Z,62.10
2018-04-12T23:14:03.081Z,62.80
2018-04-12T23:16:32.995Z,62.80
2018-04-12T23:19:02.102Z,62.80
2018-04-12T23:21:31.158Z,62.30
2018-04-12T23:24:01.087Z,61.70
2018-04-12T23:26:30.862Z,61.70
2018-04-12T23:28:59.911Z,61.70
2018-04-12T23:31:28.983Z,62.60
2018-04-12T23:33:58.795Z,62.20
2018-04-12T23:36:28.626Z,62.60
2018-04-12T23:38:57.664Z,62.50
2018-04-12T23:41:26.745Z,63.00
2018-04-12T23:43:55.807Z,63.50
2018-04-12T23:46:24.898Z,63.20
2018-04-12T23:48:53.948Z,63.40
2018-04-12T23:51:23.024Z,63.50
2018-04-12T23:53:52.109Z,64.30
2018-04-12T23:56:21.180Z,64.10
2018-04-12T23:58:50.213Z,64.10
